createdAt,value
2023-04-12T00:00:07.307Z,0
2023-04-12T00:03:08.021Z,0
2023-04-12T00:06:07.374Z,0
2023-04-12T00:09:07.282Z,0
2023-04-12T00:12:07.338Z,0
2023-04-12T00:15:10.101Z,0
2023-04-12T00:18:07.640Z,0
2023-04-12T00:21:07.264Z,0
2023-04-12T00:24:07.271Z,0
2023-04-12T00:27:07.308Z,0
2023-04-12T00:30:07.288Z,0
2023-04-12T00:33:07.727Z,0
2023-04-12T00:36:07.465Z,0
2023-04-12T00:39:07.396Z,0
2023-04-12T00:42:07.358Z,0
2023-04-12T00:45:07.354Z,0
2023-04-12T00:48:07.651Z,0
2023-04-12T00:51:07.297Z,0
2023-04-12T00:54:07.304Z,0
2023-04-12T00:57:07.345Z,0
2023-04-12T01:00:07.347Z,0
2023-04-12T01:03:08.026Z,0
2023-04-12T01:06:07.274Z,0
2023-04-12T01:09:07.246Z,0
2023-04-12T01:12:07.375Z,0
2023-04-12T01:15:07.284Z,0
2023-04-12T01:18:07.636Z,0
2023-04-12T01:21:07.460Z,0
2023-04-12T01:24:07.266Z,0
2023-04-12T01:27:07.358Z,0
2023-04-12T01:30:07.291Z,0
2023-04-12T01:33:07.652Z,0
2023-04-12T01:36:10.057Z,0
2023-04-12T01:39:07.329Z,0
2023-04-12T01:42:07.272Z,0
2023-04-12T01:45:07.243Z,0
2023-04-12T01:48:07.733Z,0
2023-04-12T01:51:07.241Z,0
2023-04-12T01:54:07.471Z,0
2023-04-12T01:57:07.366Z,0
2023-04-12T02:00:07.405Z,0
2023-04-12T02:03:08.136Z,0
2023-04-12T02:06:07.325Z,0
2023-04-12T02:09:07.278Z,0
2023-04-12T02:12:07.458Z,0
2023-04-12T02:15:07.631Z,0
2023-04-12T02:18:07.629Z,0
2023-04-12T02:21:07.559Z,0
2023-04-12T02:24:07.360Z,0
2023-04-12T02:27:07.294Z,0
2023-04-12T02:30:07.396Z,0
2023-04-12T02:33:07.451Z,0
2023-04-12T02:36:07.382Z,0
2023-04-12T02:39:07.282Z,0
2023-04-12T02:42:07.338Z,0
2023-04-12T02:45:07.292Z,0
2023-04-12T02:48:07.756Z,0
2023-04-12T02:51:07.526Z,0
2023-04-12T02:54:07.286Z,0
2023-04-12T02:57:07.264Z,0
2023-04-12T03:00:07.296Z,0
2023-04-12T03:03:08.113Z,0
2023-04-12T03:06:07.297Z,0
2023-04-12T03:09:07.343Z,0
2023-04-12T03:12:07.245Z,0
2023-04-12T03:15:07.460Z,0
2023-04-12T03:18:07.569Z,0
2023-04-12T03:21:07.281Z,0
2023-04-12T03:24:07.257Z,0
2023-04-12T03:27:07.284Z,0
2023-04-12T03:30:07.436Z,0
2023-04-12T03:33:07.745Z,0
2023-04-12T03:36:07.533Z,0
2023-04-12T03:39:07.265Z,0
2023-04-12T03:42:08.058Z,0
2023-04-12T03:45:07.334Z,0
2023-04-12T03:48:07.471Z,0
2023-04-12T03:51:07.289Z,0
2023-04-12T03:54:07.291Z,0
2023-04-12T03:57:07.286Z,0
2023-04-12T04:00:07.622Z,3
2023-04-12T04:03:08.066Z,3
2023-04-12T04:06:07.290Z,7
2023-04-12T04:09:07.278Z,13
2023-04-12T04:12:07.271Z,23
2023-04-12T04:15:07.275Z,37
2023-04-12T04:18:07.625Z,57
2023-04-12T04:21:07.315Z,87
2023-04-12T04:24:07.265Z,130
2023-04-12T04:27:07.241Z,187
2023-04-12T04:30:07.381Z,253
2023-04-12T04:33:07.562Z,333
2023-04-12T04:36:07.550Z,427
2023-04-12T04:39:07.344Z,520
2023-04-12T04:42:07.307Z,603
2023-04-12T04:45:07.606Z,673
2023-04-12T04:48:07.596Z,780
2023-04-12T04:51:07.317Z,880
2023-04-12T04:54:07.383Z,1000
2023-04-12T04:57:07.316Z,1110
2023-04-12T05:00:07.470Z,1173
2023-04-12T05:03:08.106Z,1247
2023-04-12T05:06:07.380Z,1333
2023-04-12T05:09:07.235Z,1453
2023-04-12T05:12:07.376Z,1593
2023-04-12T05:15:18.895Z,1763
2023-04-12T05:18:07.579Z,2080
2023-04-12T05:21:07.440Z,2600
2023-04-12T05:24:07.420Z,3187
2023-04-12T05:27:07.340Z,3780
2023-04-12T05:30:07.587Z,4523
2023-04-12T05:33:07.579Z,5237
2023-04-12T05:36:07.711Z,5607
2023-04-12T05:39:07.332Z,6407
2023-04-12T05:42:07.345Z,7177
2023-04-12T05:45:07.423Z,7710
2023-04-12T05:48:07.607Z,8243
2023-04-12T05:51:07.296Z,8620
2023-04-12T05:54:07.349Z,9547
2023-04-12T05:57:07.396Z,8960
2023-04-12T06:00:07.382Z,8077
2023-04-12T06:03:08.088Z,7637
2023-04-12T06:06:07.372Z,5903
2023-04-12T06:09:07.522Z,4897
2023-04-12T06:12:07.348Z,4147
2023-04-12T06:15:07.353Z,3337
2023-04-12T06:18:07.872Z,3413
2023-04-12T06:21:07.331Z,4163
2023-04-12T06:24:07.370Z,5373
2023-04-12T06:27:07.363Z,6033
2023-04-12T06:30:07.389Z,5837
2023-04-12T06:33:07.615Z,6440
2023-04-12T06:36:07.677Z,6720
2023-04-12T06:39:07.416Z,6383
2023-04-12T06:42:07.382Z,7083
2023-04-12T06:45:07.465Z,8443
2023-04-12T06:48:07.598Z,8927
2023-04-12T06:51:07.342Z,9363
2023-04-12T06:54:07.391Z,10260
2023-04-12T06:57:07.306Z,11447
2023-04-12T07:00:07.621Z,13347
2023-04-12T07:03:07.873Z,14840
2023-04-12T07:06:30.091Z,15430
2023-04-12T07:09:07.341Z,14850
2023-04-12T07:12:07.613Z,14457
2023-04-12T07:15:07.663Z,14217
2023-04-12T07:18:07.600Z,15237
2023-04-12T07:21:07.352Z,17027
2023-04-12T07:24:07.308Z,18487
2023-04-12T07:27:07.264Z,18803
2023-04-12T07:30:07.414Z,17853
2023-04-12T07:33:26.427Z,17473
2023-04-12T07:36:07.612Z,17390
2023-04-12T07:39:07.539Z,15067
2023-04-12T07:42:07.357Z,14057
2023-04-12T07:45:07.369Z,13957
2023-04-12T07:48:07.800Z,14803
2023-04-12T07:51:07.397Z,16240
2023-04-12T07:54:07.387Z,17337
2023-04-12T07:57:07.414Z,16783
2023-04-12T08:00:07.367Z,17037
2023-04-12T08:03:08.268Z,19927
2023-04-12T08:06:07.580Z,28700
2023-04-12T08:09:07.362Z,32227
2023-04-12T08:12:07.304Z,32460
2023-04-12T08:15:07.365Z,28147
2023-04-12T08:18:07.632Z,33870
2023-04-12T08:21:07.446Z,32660
2023-04-12T08:24:07.324Z,31210
2023-04-12T08:27:07.325Z,33453
2023-04-12T08:30:07.454Z,22483
2023-04-12T08:33:07.452Z,23790
2023-04-12T08:36:07.701Z,28430
2023-04-12T08:39:07.371Z,26993
2023-04-12T08:42:07.322Z,31017
2023-04-12T08:48:08.059Z,26053
2023-04-12T08:51:07.671Z,25907
2023-04-12T08:54:07.748Z,24617
2023-04-12T08:57:07.899Z,23990
2023-04-12T09:00:08.842Z,24540
2023-04-12T09:03:09.312Z,22650
2023-04-12T09:06:08.805Z,19987
2023-04-12T09:09:10.548Z,18313
2023-04-12T09:12:08.303Z,18993
2023-04-12T09:15:08.143Z,21210
2023-04-12T09:18:08.392Z,18267
2023-04-12T09:21:08.129Z,14677
2023-04-12T09:30:07.846Z,10087
2023-04-12T09:33:07.981Z,10650
2023-04-12T09:36:08.094Z,11080
2023-04-12T09:39:08.034Z,11310
2023-04-12T09:42:15.205Z,11163
2023-04-12T09:45:07.641Z,10677
2023-04-12T09:48:08.065Z,10387
2023-04-12T09:51:07.737Z,10127
2023-04-12T09:54:07.976Z,9853
2023-04-12T09:57:07.628Z,9273
2023-04-12T10:00:07.781Z,9790
2023-04-12T10:03:08.790Z,9590
2023-04-12T10:06:07.704Z,9887
2023-04-12T10:09:07.777Z,9160
2023-04-12T10:12:07.579Z,9103
2023-04-12T10:15:07.751Z,9440
2023-04-12T10:18:07.951Z,10150
2023-04-12T10:21:07.673Z,10117
2023-04-12T10:24:07.681Z,10813
2023-04-12T10:27:09.935Z,12507
2023-04-12T10:30:07.852Z,11323
2023-04-12T10:33:08.286Z,10123
2023-04-12T10:36:08.736Z,9327
2023-04-12T10:39:07.726Z,8060
2023-04-12T10:42:07.727Z,7063
2023-04-12T10:45:08.290Z,6780
2023-04-12T10:48:08.130Z,7190
2023-04-12T10:51:08.015Z,8520
2023-04-12T10:54:08.806Z,11327
2023-04-12T10:57:08.214Z,11570
2023-04-12T11:00:08.079Z,11467
2023-04-12T11:03:09.146Z,9857
2023-04-12T11:06:33.102Z,8850
2023-04-12T11:09:07.910Z,9920
2023-04-12T11:12:11.081Z,12990
2023-04-12T11:15:08.006Z,14957
2023-04-12T11:18:08.562Z,12457
2023-04-12T11:21:08.009Z,11163
2023-04-12T11:24:08.181Z,10877
2023-04-12T11:27:07.823Z,11480
2023-04-12T11:30:08.142Z,11653
2023-04-12T11:33:08.104Z,11180
2023-04-12T11:36:08.093Z,11533
2023-04-12T11:39:08.313Z,11137
2023-04-12T11:42:08.106Z,11310
2023-04-12T11:45:23.146Z,13153
2023-04-12T11:48:08.138Z,11460
2023-04-12T11:51:18.318Z,9813
2023-04-12T11:54:08.329Z,8320
2023-04-12T11:57:12.399Z,8090
2023-04-12T12:00:08.348Z,7477
2023-04-12T12:03:16.374Z,7707
2023-04-12T12:06:10.010Z,10140
2023-04-12T12:09:08.633Z,13987
2023-04-12T12:12:08.315Z,12597
2023-04-12T12:15:07.944Z,12580
2023-04-12T12:18:08.147Z,10500
2023-04-12T12:21:08.480Z,9193
2023-04-12T12:24:08.468Z,9927
2023-04-12T12:27:08.840Z,7207
2023-04-12T12:30:07.886Z,7720
2023-04-12T12:33:08.381Z,11520
2023-04-12T12:36:08.224Z,14397
2023-04-12T12:39:08.019Z,11920
2023-04-12T12:42:07.900Z,10547
2023-04-12T12:45:08.386Z,12617
2023-04-12T12:48:08.235Z,11093
2023-04-12T12:51:07.843Z,9393
2023-04-12T12:54:07.870Z,8437
2023-04-12T12:57:11.870Z,8453
2023-04-12T13:00:08.420Z,10137
2023-04-12T13:03:10.259Z,13800
2023-04-12T13:06:07.891Z,14310
2023-04-12T13:09:08.629Z,15230
2023-04-12T13:12:07.862Z,13860
2023-04-12T13:15:30.438Z,12560
2023-04-12T13:18:08.393Z,11417
2023-04-12T13:21:09.349Z,8120
2023-04-12T13:24:10.236Z,6587
2023-04-12T13:27:08.498Z,5667
2023-04-12T13:30:08.683Z,6300
2023-04-12T13:33:08.094Z,6177
2023-04-12T13:36:08.995Z,5663
2023-04-12T13:39:08.234Z,7237
2023-04-12T13:42:09.046Z,7823
2023-04-12T13:45:07.644Z,8847
2023-04-12T13:48:08.280Z,9387
2023-04-12T13:51:08.041Z,10500
2023-04-12T13:54:09.708Z,9287
2023-04-12T13:57:08.137Z,9320
2023-04-12T14:00:11.382Z,5150
2023-04-12T14:03:10.273Z,9593
2023-04-12T14:06:08.526Z,9960
2023-04-12T14:09:08.115Z,11227
2023-04-12T14:12:11.767Z,9857
2023-04-12T14:15:08.754Z,8887
2023-04-12T14:18:08.391Z,8103
2023-04-12T14:21:08.337Z,4833
2023-04-12T14:24:08.137Z,8967
2023-04-12T14:27:08.120Z,9163
2023-04-12T14:30:08.439Z,8830
2023-04-12T14:33:08.947Z,5743
2023-04-12T14:36:07.881Z,8427
2023-04-12T14:39:14.005Z,8107
2023-04-12T14:42:08.108Z,7400
2023-04-12T14:45:08.447Z,7373
2023-04-12T14:48:08.538Z,4767
2023-04-12T14:51:10.367Z,7807
2023-04-12T14:54:09.777Z,8860
2023-04-12T14:57:08.078Z,9967
2023-04-12T15:00:11.254Z,7607
2023-04-12T15:03:10.963Z,6023
2023-04-12T15:06:07.717Z,5510
2023-04-12T15:09:10.627Z,5783
2023-04-12T15:12:08.101Z,9383
2023-04-12T15:15:10.804Z,10897
2023-04-12T15:18:07.980Z,7687
2023-04-12T15:21:10.886Z,6123
2023-04-12T15:24:07.780Z,5407
2023-04-12T15:27:10.193Z,4907
2023-04-12T15:30:08.334Z,4563
2023-04-12T15:33:07.924Z,4533
2023-04-12T15:36:07.777Z,5113
2023-04-12T15:39:08.212Z,5547
2023-04-12T15:42:07.668Z,6700
2023-04-12T15:45:07.875Z,8683
2023-04-12T15:48:08.011Z,10620
2023-04-12T15:51:07.796Z,10360
2023-04-12T15:54:08.065Z,10437
2023-04-12T15:57:08.131Z,9813
2023-04-12T16:00:07.702Z,7287
2023-04-12T16:03:08.691Z,5773
2023-04-12T16:06:07.699Z,5080
2023-04-12T16:09:08.649Z,4173
2023-04-12T16:12:07.626Z,4123
2023-04-12T16:15:07.922Z,3273
2023-04-12T16:18:07.940Z,2180
2023-04-12T16:21:07.797Z,1740
2023-04-12T16:24:07.765Z,1867
2023-04-12T16:27:07.629Z,1583
2023-04-12T16:30:07.755Z,987
2023-04-12T16:33:08.024Z,960
2023-04-12T16:36:07.638Z,1130
2023-04-12T16:39:07.763Z,853
2023-04-12T16:42:07.620Z,897
2023-04-12T16:45:08.661Z,997
2023-04-12T16:48:07.910Z,713
2023-04-12T16:51:07.754Z,847
2023-04-12T16:54:07.691Z,1127
2023-04-12T16:57:07.964Z,1303
2023-04-12T17:00:07.644Z,1323
2023-04-12T17:03:08.380Z,1200
2023-04-12T17:06:07.601Z,887
2023-04-12T17:09:07.832Z,777
2023-04-12T17:12:07.681Z,980
2023-04-12T17:15:07.749Z,1017
2023-04-12T17:18:08.043Z,833
2023-04-12T17:21:07.938Z,540
2023-04-12T17:24:08.154Z,427
2023-04-12T17:27:07.652Z,473
2023-04-12T17:30:07.690Z,753
2023-04-12T17:33:08.743Z,900
2023-04-12T17:36:13.166Z,707
2023-04-12T17:39:08.640Z,513
2023-04-12T17:42:07.770Z,337
2023-04-12T17:45:07.887Z,130
2023-04-12T17:48:07.908Z,143
2023-04-12T17:51:07.857Z,87
2023-04-12T17:54:07.875Z,63
2023-04-12T17:57:07.823Z,60
2023-04-12T18:00:07.736Z,47
2023-04-12T18:03:08.802Z,57
2023-04-12T18:06:07.562Z,47
2023-04-12T18:09:08.219Z,43
2023-04-12T18:12:07.582Z,40
2023-04-12T18:15:07.719Z,17
2023-04-12T18:18:07.796Z,13
2023-04-12T18:21:07.717Z,13
2023-04-12T18:24:07.626Z,10
2023-04-12T18:27:07.630Z,3
2023-04-12T18:30:07.675Z,3
2023-04-12T18:33:10.792Z,3
2023-04-12T18:36:07.625Z,0
2023-04-12T18:39:07.687Z,0
2023-04-12T18:42:07.584Z,0
2023-04-12T18:45:07.803Z,0
2023-04-12T18:48:07.817Z,0
2023-04-12T18:51:07.698Z,0
2023-04-12T18:54:08.238Z,0
2023-04-12T18:57:07.774Z,0
2023-04-12T19:00:07.825Z,0
2023-04-12T19:03:08.364Z,0
2023-04-12T19:06:07.525Z,0
2023-04-12T19:09:07.620Z,0
2023-04-12T19:12:07.520Z,0
2023-04-12T19:15:07.840Z,0
2023-04-12T19:18:08.376Z,0
2023-04-12T19:21:07.938Z,0
2023-04-12T19:24:07.875Z,0
2023-04-12T19:27:07.616Z,0
2023-04-12T19:30:07.682Z,0
2023-04-12T19:33:07.930Z,0
2023-04-12T19:36:07.552Z,0
2023-04-12T19:39:07.713Z,0
2023-04-12T19:42:07.762Z,0
2023-04-12T19:45:07.723Z,0
2023-04-12T19:48:07.943Z,0
2023-04-12T19:51:07.750Z,0
2023-04-12T19:54:07.692Z,0
2023-04-12T19:57:07.754Z,0
2023-04-12T20:00:07.645Z,0
2023-04-12T20:03:08.078Z,0
2023-04-12T20:06:07.590Z,0
2023-04-12T20:09:07.767Z,0
2023-04-12T20:12:07.516Z,0
2023-04-12T20:15:07.741Z,0
2023-04-12T20:18:07.764Z,0
2023-04-12T20:21:07.766Z,0
2023-04-12T20:24:07.562Z,0
2023-04-12T20:27:07.587Z,0
2023-04-12T20:30:07.726Z,0
2023-04-12T20:33:08.091Z,0
2023-04-12T20:36:07.610Z,0
2023-04-12T20:39:07.950Z,0
2023-04-12T20:42:07.693Z,0
2023-04-12T20:45:07.677Z,0
2023-04-12T20:48:07.903Z,0
2023-04-12T20:51:07.626Z,0
2023-04-12T20:54:07.577Z,0
2023-04-12T20:57:07.730Z,0
2023-04-12T21:00:07.881Z,0
2023-04-12T21:03:08.826Z,0
2023-04-12T21:06:07.667Z,0
2023-04-12T21:09:07.703Z,0
2023-04-12T21:12:07.546Z,0
2023-04-12T21:15:07.656Z,0
2023-04-12T21:18:07.874Z,0
2023-04-12T21:21:07.751Z,0
2023-04-12T21:24:07.535Z,0
2023-04-12T21:27:07.627Z,0
2023-04-12T21:30:07.680Z,0
2023-04-12T21:33:07.983Z,0
2023-04-12T21:36:07.585Z,0
2023-04-12T21:39:08.279Z,0
2023-04-12T21:42:07.586Z,0
2023-04-12T21:45:07.590Z,0
2023-04-12T21:48:07.710Z,0
2023-04-12T21:51:07.691Z,0
2023-04-12T21:54:07.540Z,0
2023-04-12T21:57:07.649Z,0
2023-04-12T22:00:08.969Z,0
2023-04-12T22:03:08.729Z,0
2023-04-12T22:06:11.999Z,0
2023-04-12T22:09:08.432Z,0
2023-04-12T22:12:07.679Z,0
2023-04-12T22:15:07.812Z,0
2023-04-12T22:18:07.838Z,0
2023-04-12T22:21:07.656Z,0
2023-04-12T22:24:08.157Z,0
2023-04-12T22:27:07.514Z,0
2023-04-12T22:30:07.631Z,0
2023-04-12T22:33:08.037Z,0
2023-04-12T22:36:07.547Z,0
2023-04-12T22:39:07.638Z,0
2023-04-12T22:42:07.553Z,0
2023-04-12T22:45:07.758Z,0
2023-04-12T22:48:07.764Z,0
2023-04-12T22:51:07.799Z,0
2023-04-12T22:54:07.544Z,0
2023-04-12T22:57:07.685Z,0
2023-04-12T23:00:07.569Z,0
2023-04-12T23:03:08.435Z,0
2023-04-12T23:06:07.538Z,0
2023-04-12T23:09:07.565Z,0
2023-04-12T23:12:07.593Z,0
2023-04-12T23:15:07.629Z,0
2023-04-12T23:18:07.834Z,0
2023-04-12T23:21:08.013Z,0
2023-04-12T23:24:07.622Z,0
2023-04-12T23:27:07.599Z,0
2023-04-12T23:30:07.694Z,0
2023-04-12T23:33:07.729Z,0
2023-04-12T23:36:07.578Z,0
2023-04-12T23:39:07.598Z,0
2023-04-12T23:42:07.589Z,0
2023-04-12T23:45:07.609Z,0
2023-04-12T23:48:07.869Z,0
2023-04-12T23:51:07.656Z,0
2023-04-12T23:54:07.765Z,0
2023-04-12T23:57:07.587Z,0
